Flight Track Log - Related Links

Times and Time Zones

All times are in EDT time to prevent confusion due to time zone crossing. See the DAL1117 flight status page for this flight to view local times or setup timezone preferences in your user account.

Time Position Orientation Groundspeed Altitude Reporting Facility
EDT Latitude Longitude Course Direction KTS MPH feet Rate Location/Type
Mon 09:44:10 PM 42.2017 -83.3583 275° West 156 180 1,500  Level Cleveland Center
Mon 09:44:29 PM 42.1931 -83.3689 222° Southwest 160 184 2,200 1,747 Climbing Cleveland Center
Mon 09:45:29 PM 42.1539 -83.4317 230° Southwest 256 295 3,800 2,579 Climbing Cleveland Center
Mon 09:46:00 PM 42.3110 -83.7881 285° West  Level FlightAware Approximate
Mon 09:46:30 PM 42.1267 -83.5172 247° West 280 322 7,400  Level Cleveland Center
Mon 09:47:00 PM 42.3515 -83.9327 292° West  Level FlightAware Approximate
Mon 09:47:57 PM 42.1836 -83.6517 300° West 302 348 11,200  Level Cleveland Center
Mon 09:48:00 PM 42.3946 -84.0763 292° West  Level FlightAware Approximate
Mon 09:48:57 PM 42.2328 -83.7606 301° West 325 374 13,900  Level Cleveland Center
Mon 09:49:00 PM 42.4195 -84.2254 275° West  Level FlightAware Approximate
Mon 09:49:58 PM 42.2817 -83.8753 300° West 346 398 16,800  Level Cleveland Center
Mon 09:50:58 PM 42.3347 -83.9906 302° West 352 405 19,100 2,200 Climbing Cleveland Center
Mon 09:52:58 PM 42.4281 -84.2261 298° West 383 441 23,400 1,912 Climbing Chicago Center
Mon 09:54:00 PM 42.4314 -84.3683 272° West 381 438 24,900 1,610 Climbing Chicago Center
Mon 09:55:01 PM 42.4350 -84.5156 272° West 390 449 26,700 1,512 Climbing Chicago Center
Mon 09:56:03 PM 42.4381 -84.6644 272° West 397 457 28,000 1,298 Climbing Chicago Center
Mon 09:58:00 PM 42.4336 -84.9669 269° West  Level FlightAware Approximate
Mon 09:59:06 PM 42.4500 -85.1544 269° West 407 468 32,000  Level Chicago Center
Mon 10:00:08 PM 42.4542 -85.3064 272° West 405 466 33,000 1,024 Climbing Chicago Center
Mon 10:01:09 PM 42.4561 -85.4594 271° West 406 467 34,100 885 Climbing Chicago Center
Mon 10:02:10 PM 42.4592 -85.6133 272° West 408 470 34,800 787 Climbing Chicago Center
Mon 10:03:11 PM 42.4614 -85.7683 271° West 410 472 35,700 927 Climbing Chicago Center
Mon 10:04:13 PM 42.4628 -85.9253 271° West 415 478 36,700 780 Climbing Chicago Center
Mon 10:05:14 PM 42.4647 -86.0819 271° West 414 476 37,300 541 Climbing Chicago Center
Mon 10:06:15 PM 42.4483 -86.2372 262° West 415 478 37,800 344 Climbing Chicago Center
Mon 10:07:16 PM 42.4278 -86.3936 260° West 421 484 38,000 98 Climbing Chicago Center
Mon 10:08:17 PM 42.4083 -86.5500 260° West 421 484 38,000  Level Chicago Center
Mon 10:09:19 PM 42.3886 -86.7267 261° West 421 484 38,000  Level Chicago Center
Mon 10:10:20 PM 42.3686 -86.8803 260° West 420 483 38,000  Level Chicago Center
Mon 10:11:21 PM 42.3483 -87.0364 260° West 423 487 38,000  Level Chicago Center
Mon 10:12:22 PM 42.3269 -87.1869 259° West 418 481 38,000  Level Chicago Center
Mon 10:13:23 PM 42.3056 -87.3411 259° West 422 486 38,000  Level Chicago Center
Mon 10:14:25 PM 42.2811 -87.5228 260° West 419 482 38,000  Level Chicago Center
Mon 10:15:26 PM 42.2597 -87.6769 259° West 420 483 38,000  Level Chicago Center
Mon 10:16:27 PM 42.2383 -87.8308 259° West 420 483 38,000  Level Chicago Center
Mon 10:17:28 PM 42.2161 -87.9825 259° West 416 479 38,000  Level Chicago Center
Mon 10:18:30 PM 42.1892 -88.1350 257° West 421 484 38,000  Level Chicago Center
Mon 10:19:31 PM 42.1622 -88.2844 256° West 417 480 38,000  Level Chicago Center
Mon 10:20:32 PM 42.1353 -88.4336 256° West 416 479 38,000  Level Chicago Center
Mon 10:21:33 PM 42.1039 -88.6114 257° West 413 475 38,000  Level Chicago Center
Mon 10:22:34 PM 42.0767 -88.7617 256° West 417 480 38,000  Level Chicago Center
Mon 10:23:35 PM 42.0492 -88.9128 256° West 419 482 38,000  Level Chicago Center
Mon 10:24:37 PM 42.0217 -89.0608 256° West 413 475 38,000  Level Chicago Center
Mon 10:25:38 PM 41.9939 -89.2122 256° West 418 481 38,000  Level Chicago Center
Mon 10:26:39 PM 41.9644 -89.3611 255° West 418 481 38,000  Level Chicago Center
Mon 10:27:40 PM 41.9383 -89.5081 257° West 412 474 38,000  Level Chicago Center
Mon 10:28:41 PM 41.9094 -89.6556 255° West 410 472 38,000  Level Chicago Center
Mon 10:29:42 PM 41.8753 -89.8336 256° West 415 478 38,000  Level Chicago Center
Mon 10:30:43 PM 41.8486 -89.9794 256° West 416 479 38,000  Level Chicago Center
Mon 10:31:45 PM 41.8206 -90.1261 256° West 412 474 38,000  Level Chicago Center
Mon 10:32:46 PM 41.7900 -90.2844 256° West 424 488 38,000  Level Chicago Center
Mon 10:33:47 PM 41.7586 -90.4367 255° West 426 490 38,000  Level Chicago Center
Mon 10:34:48 PM 41.7306 -90.5794 255° West 404 465 38,000  Level Chicago Center
Mon 10:35:49 PM 41.7036 -90.7156 255° West 403 464 38,000  Level Chicago Center
Mon 10:36:51 PM 41.6736 -90.8644 255° West 412 474 38,000  Level Chicago Center
Mon 10:37:52 PM 41.6364 -91.0456 255° West 422 486 38,000  Level Chicago Center
Mon 10:38:53 PM 41.6058 -91.1944 255° West 419 482 38,000  Level Chicago Center
Mon 10:39:54 PM 41.5747 -91.3458 255° West 424 488 38,000  Level Chicago Center
Mon 10:40:55 PM 41.5431 -91.4969 254° West 425 489 38,000  Level Chicago Center
Mon 10:41:56 PM 41.5106 -91.6497 254° West 431 496 38,000  Level Chicago Center
Mon 10:42:57 PM 41.4694 -91.8006 250° West 434 499 38,000  Level Chicago Center
Mon 10:43:59 PM 41.4297 -91.9536 251° West 438 504 38,000  Level Chicago Center
Mon 10:45:00 PM 41.3886 -92.1039 250° West 437 503 38,000  Level Chicago Center
Mon 10:46:01 PM 41.3406 -92.2864 251° West 438 504 38,000  Level Chicago Center
Mon 10:47:02 PM 41.3058 -92.4164 250° West 432 497 38,000  Level Chicago Center
Mon 10:48:03 PM 41.2647 -92.5658 250° West 435 501 38,000  Level Chicago Center
Mon 10:48:46 PM 41.2325 -92.6856 250° West 434 499 38,000  Level Minneapolis Center
Mon 10:49:47 PM 41.1922 -92.8331 250° West 431 496 38,000  Level Minneapolis Center
Mon 10:50:48 PM 41.1511 -92.9806 250° West 432 497 38,000  Level Minneapolis Center
Mon 10:51:49 PM 41.1094 -93.1275 249° West 431 496 38,000  Level Minneapolis Center
Mon 10:52:50 PM 41.0603 -93.3042 250° West 431 496 38,000  Level Minneapolis Center
Mon 10:53:51 PM 41.0192 -93.4508 250° West 431 496 38,000  Level Minneapolis Center
Mon 10:54:52 PM 40.9817 -93.5914 251° West 422 486 38,000  Level Minneapolis Center
Mon 10:55:53 PM 40.9386 -93.7381 249° West 428 493 38,000  Level Minneapolis Center
Mon 10:57:06 PM 40.8947 -93.8856 249° West 434 499 38,000  Level Minneapolis Center
Mon 10:58:08 PM 40.8469 -94.0550 250° West 423 487 38,000  Level Minneapolis Center
Mon 10:59:09 PM 40.8053 -94.1947 249° West 417 480 38,000  Level Minneapolis Center
Mon 11:00:11 PM 40.7572 -94.3639 249° West 415 478 38,000  Level Minneapolis Center
Mon 11:01:12 PM 40.7142 -94.5050 248° West 418 481 38,000  Level Minneapolis Center
Mon 11:02:13 PM 40.6769 -94.6325 249° West 415 478 38,000  Level Minneapolis Center
Mon 11:03:14 PM 40.6264 -94.8019 249° West 414 476 38,000  Level Minneapolis Center
Mon 11:04:15 PM 40.5853 -94.9433 249° West 413 475 38,000  Level Minneapolis Center
Mon 11:05:17 PM 40.5428 -95.0839 248° West 412 474 38,000  Level Minneapolis Center
Mon 11:06:30 PM 40.5006 -95.2236 248° West 411 473 38,000  Level Minneapolis Center
Mon 11:07:31 PM 40.4508 -95.3925 249° West 411 473 38,000  Level Minneapolis Center
Mon 11:08:32 PM 40.4064 -95.5361 248° West 417 480 38,000  Level Minneapolis Center
Mon 11:09:33 PM 40.3633 -95.6772 248° West 419 482 38,000  Level Minneapolis Center
Mon 11:10:34 PM 40.3197 -95.8169 248° West 416 479 38,000  Level Minneapolis Center
Mon 11:11:36 PM 40.2764 -95.9597 248° West 418 481 38,000  Level Minneapolis Center
Mon 11:12:37 PM 40.2331 -96.0997 248° West 416 479 38,000  Level Minneapolis Center
Mon 11:13:38 PM 40.1908 -96.2428 249° West 418 481 38,000  Level Minneapolis Center
Mon 11:14:39 PM 40.1603 -96.3881 255° West 417 480 38,000  Level Minneapolis Center
Mon 11:15:40 PM 40.1289 -96.5361 255° West 419 482 38,000  Level Minneapolis Center
Mon 11:16:53 PM 40.0972 -96.6811 254° West 417 480 38,000  Level Minneapolis Center
Mon 11:17:54 PM 40.0519 -96.8856 254° West 418 481 38,000  Level Minneapolis Center
Mon 11:18:55 PM 40.0197 -97.0311 254° West 416 479 38,000  Level Minneapolis Center
Mon 11:19:57 PM 39.9883 -97.1764 254° West 417 480 38,000  Level Minneapolis Center
Mon 11:20:58 PM 39.9553 -97.3217 254° West 417 480 38,000  Level Minneapolis Center
Mon 11:21:59 PM 39.9253 -97.4489 253° West 416 479 38,000  Level Minneapolis Center
Mon 11:23:00 PM 39.8878 -97.6211 254° West 412 474 38,000  Level Minneapolis Center
Mon 11:24:01 PM 39.8536 -97.7647 253° West 414 476 38,000  Level Minneapolis Center
Mon 11:25:02 PM 39.8214 -97.9075 254° West 412 474 38,000  Level Minneapolis Center
Mon 11:26:03 PM 39.7881 -98.0517 253° West 413 475 38,000  Level Minneapolis Center
Mon 11:27:03 PM 39.7536 -98.1972 253° West 419 482 38,000  Level Minneapolis Center
Mon 11:28:04 PM 39.7189 -98.3436 253° West 422 486 38,000  Level Minneapolis Center
Mon 11:29:05 PM 39.6853 -98.4883 253° West 420 483 38,000  Level Minneapolis Center
Mon 11:30:06 PM 39.6511 -98.6311 253° West 416 479 38,000  Level Minneapolis Center
Mon 11:31:07 PM 39.6175 -98.7761 253° West 417 480 38,000  Level Minneapolis Center
Mon 11:32:21 PM 39.5753 -98.9486 252° West 418 481 38,000  Level Denver Center
Mon 11:33:22 PM 39.5408 -99.0925 253° West 417 480 38,000  Level Denver Center
Mon 11:34:23 PM 39.5058 -99.2347 252° West 415 478 38,000  Level Denver Center
Mon 11:35:24 PM 39.4714 -99.3775 253° West 416 479 38,000  Level Denver Center
Mon 11:36:26 PM 39.4350 -99.5217 252° West 414 476 38,000  Level Denver Center
Mon 11:37:27 PM 39.3956 -99.6803 252° West 416 479 38,000  Level Denver Center
Mon 11:38:28 PM 39.3611 -99.8194 252° West 420 483 38,000  Level Denver Center
Mon 11:39:29 PM 39.3203 -99.9794 252° West 421 484 38,000  Level Denver Center
Mon 11:40:30 PM 39.2853 -100.1189 252° West 425 489 38,000  Level Denver Center
Mon 11:41:31 PM 39.2572 -100.2331 252° West 420 483 38,000  Level Denver Center
Mon 11:42:33 PM 39.2186 -100.4150 255° West 415 478 38,000  Level Denver Center
Mon 11:43:34 PM 39.1900 -100.5531 255° West 415 478 38,000  Level Denver Center
Mon 11:44:47 PM 39.1608 -100.6906 255° West 415 478 38,000  Level Denver Center
Mon 11:45:48 PM 39.1211 -100.8742 254° West 417 480 38,000  Level Denver Center
Mon 11:46:50 PM 39.0908 -101.0125 254° West 419 482 38,000  Level Denver Center
Mon 11:47:51 PM 39.0564 -101.1753 255° West 422 486 38,000  Level Denver Center
Mon 11:48:52 PM 39.0228 -101.3261 254° West 420 483 38,000  Level Denver Center
Mon 11:49:53 PM 38.9922 -101.4639 254° West 421 484 38,000  Level Denver Center
Mon 11:51:06 PM 38.9625 -101.6028 255° West 423 487 38,000  Level Denver Center
Mon 11:52:08 PM 38.9211 -101.7875 254° West 423 487 38,000  Level Denver Center
Mon 11:53:09 PM 38.8900 -101.9247 254° West 421 484 38,000  Level Denver Center
Mon 11:54:10 PM 38.8536 -102.0853 254° West 421 484 38,000  Level Denver Center
Mon 11:55:11 PM 38.8272 -102.2008 254° West 423 487 38,000  Level Denver Center
Mon 11:56:12 PM 38.7844 -102.3842 253° West 424 488 38,000  Level Denver Center
Mon 11:57:14 PM 38.7531 -102.5228 254° West 425 489 38,000  Level Denver Center
Mon 11:58:15 PM 38.7214 -102.6589 253° West 421 484 38,000  Level Denver Center
Mon 11:59:16 PM 38.6867 -102.8072 253° West 422 486 38,000  Level Denver Center
Tue 12:00:18 AM 38.6531 -102.9511 253° West 420 483 38,000  Level Denver Center
Tue 12:01:19 AM 38.6189 -103.0969 253° West 423 487 38,000  Level Denver Center
Tue 12:02:20 AM 38.5839 -103.2425 253° West 425 489 38,000  Level Denver Center
Tue 12:03:21 AM 38.5486 -103.3928 253° West 425 489 38,000  Level Denver Center
Tue 12:04:22 AM 38.5131 -103.5383 253° West 426 490 38,000 -98 Level Denver Center
Tue 12:05:24 AM 38.4747 -103.6983 253° West 425 489 37,800 -683 Descending Denver Center
Tue 12:06:25 AM 38.4414 -103.8344 253° West 422 486 36,600 -885 Descending Denver Center
Tue 12:07:26 AM 38.4025 -103.9903 252° West 418 481 36,000 -295 Descending Denver Center
Tue 12:08:27 AM 38.3675 -104.1344 253° West 423 487 36,000  Level Denver Center
Tue 12:09:28 AM 38.3319 -104.2772 252° West 420 483 36,000  Level Denver Center
Tue 12:10:29 AM 38.2983 -104.4192 253° West 420 483 36,000  Level Denver Center
Tue 12:11:31 AM 38.2825 -104.5578 262° West 416 479 36,000  Level Denver Center
Tue 12:12:32 AM 38.2683 -104.7211 264° West 417 480 36,000  Level Denver Center
Tue 12:13:33 AM 38.2553 -104.8594 263° West 414 476 36,000  Level Denver Center
Tue 12:14:34 AM 38.2411 -105.0094 263° West 415 478 36,000  Level Denver Center
Tue 12:15:35 AM 38.2272 -105.1586 263° West 418 481 36,000  Level Denver Center
Tue 12:16:36 AM 38.2133 -105.3022 263° West 416 479 36,000  Level Denver Center
Tue 12:17:37 AM 38.1981 -105.4647 263° West 415 478 36,000  Level Denver Center
Tue 12:18:38 AM 38.1850 -105.6003 263° West 415 478 36,000  Level Denver Center
Tue 12:19:40 AM 38.1706 -105.7422 263° West 412 474 36,000  Level Denver Center
Tue 12:20:41 AM 38.1547 -105.9006 263° West 413 475 36,000  Level Denver Center
Tue 12:21:42 AM 38.1406 -106.0425 263° West 418 481 36,000 -344 Level Denver Center
Tue 12:22:43 AM 38.1258 -106.1778 262° West 412 474 35,300 -836 Descending Denver Center
Tue 12:23:44 AM 38.1114 -106.3258 263° West 420 483 34,300 -639 Descending Denver Center
Tue 12:24:45 AM 38.0947 -106.4758 262° West 424 488 34,000 -148 Descending Denver Center
Tue 12:25:46 AM 38.0764 -106.6519 263° West 424 488 34,000  Level Denver Center
Tue 12:26:48 AM 38.0606 -106.7933 262° West 422 486 34,000  Level Denver Center
Tue 12:27:49 AM 38.0453 -106.9342 262° West 420 483 34,000  Level Denver Center
Tue 12:28:50 AM 38.0281 -107.0967 262° West 416 479 34,000  Level Denver Center
Tue 12:29:51 AM 38.0103 -107.2461 261° West 422 486 34,000  Level Denver Center
Tue 12:30:52 AM 37.9939 -107.3869 262° West 423 487 34,000  Level Denver Center
Tue 12:31:53 AM 37.9756 -107.5542 262° West 429 494 34,000  Level Denver Center
Tue 12:32:54 AM 37.9594 -107.6981 262° West 432 497 34,000 49 Level Denver Center
Tue 12:33:55 AM 37.9428 -107.8397 262° West 428 493 34,100  Climbing Denver Center
Tue 12:34:56 AM 37.9231 -108.0000 261° West 418 481 34,000 -49 Descending Denver Center
Tue 12:35:57 AM 37.9064 -108.1367 261° West 411 473 34,000  Level Denver Center
Tue 12:36:58 AM 37.8900 -108.2731 261° West 411 473 34,000  Level Denver Center
Tue 12:37:59 AM 37.8706 -108.4356 261° West 416 479 34,000  Level Denver Center
Tue 12:39:00 AM 37.8533 -108.5728 261° West 416 479 34,000  Level Denver Center
Tue 12:40:00 AM 37.8331 -108.7386 261° West 423 487 34,000  Level Denver Center
Tue 12:41:01 AM 37.8150 -108.8792 261° West 423 487 34,000  Level Denver Center
Tue 12:42:02 AM 37.7878 -109.0136 256° West 421 484 34,000  Level Denver Center
Tue 12:43:03 AM 37.7483 -109.1728 253° West 427 491 34,000  Level Denver Center
Tue 12:44:04 AM 37.7144 -109.3094 253° West 427 491 34,000  Level Denver Center
Tue 12:45:05 AM 37.6811 -109.4444 253° West 424 488 34,000  Level Denver Center
Tue 12:46:05 AM 37.6411 -109.6017 252° West 423 487 34,000  Level Denver Center
Tue 12:47:06 AM 37.6069 -109.7361 252° West 422 486 34,000 -344 Level Denver Center
Tue 12:48:07 AM 37.5731 -109.8725 253° West 425 489 33,300 -885 Descending Denver Center
Tue 12:49:08 AM 37.5331 -110.0317 252° West 427 491 32,200 -645 Descending Denver Center
Tue 12:50:08 AM 37.4956 -110.1711 251° West 436 502 32,000 -99 Descending Denver Center
Tue 12:51:09 AM 37.4625 -110.3008 252° West 432 497 32,000  Level Denver Center
Tue 12:52:10 AM 37.4172 -110.4722 252° West 430 495 32,000  Level Denver Center
Tue 12:53:10 AM 37.3794 -110.6167 252° West 435 501 32,000  Level Denver Center
Tue 12:54:11 AM 37.3417 -110.7603 252° West 434 499 32,000  Level Denver Center
Tue 12:55:12 AM 37.3039 -110.9025 252° West 429 494 32,000  Level Denver Center
Tue 12:56:12 AM 37.2653 -111.0456 251° West 432 497 32,000  Level Denver Center
Tue 12:57:13 AM 37.2281 -111.1903 252° West 435 501 32,000  Level Denver Center
Tue 12:58:13 AM 37.1881 -111.3344 251° West 437 503 32,000  Level Denver Center
Tue 12:59:14 AM 37.1500 -111.4794 252° West 436 502 32,000  Level Denver Center
Tue 01:00:15 AM 37.1106 -111.6222 251° West 434 499 32,000  Level Denver Center
Tue 01:01:15 AM 37.0708 -111.7656 251° West 435 501 32,000  Level Denver Center
Tue 01:02:16 AM 37.0319 -111.9094 251° West 436 502 32,000 -99 Level Denver Center
Tue 01:03:16 AM 36.9911 -112.0547 251° West 439 505 31,800 -500 Descending Denver Center
Tue 01:04:04 AM 36.9700 -112.1692 257° West 429 494 31,100 -927 Descending Los Angeles Center
Tue 01:05:06 AM 36.9403 -112.3156 256° West 432 497 30,100 -976 Descending Los Angeles Center
Tue 01:06:07 AM 36.9114 -112.4647 256° West 438 504 29,100 -984 Descending Los Angeles Center
Tue 01:07:08 AM 36.8806 -112.6108 255° West 436 502 28,100 -934 Descending Los Angeles Center
Tue 01:08:09 AM 36.8528 -112.7533 256° West 425 489 27,200 -976 Descending Los Angeles Center
Tue 01:09:11 AM 36.8233 -112.8994 256° West 430 495 26,100 -976 Descending Los Angeles Center
Tue 01:10:12 AM 36.7950 -113.0358 255° West 410 472 25,200 -934 Descending Los Angeles Center
Tue 01:11:13 AM 36.7692 -113.1617 256° West 383 441 24,200 -590 Descending Los Angeles Center
Tue 01:12:14 AM 36.7369 -113.3131 255° West 377 434 24,000 -98 Descending Los Angeles Center
Tue 01:13:15 AM 36.7111 -113.4383 256° West 375 432 24,000  Level Los Angeles Center
Tue 01:14:16 AM 36.6858 -113.5642 256° West 374 430 24,000  Level Los Angeles Center
Tue 01:15:18 AM 36.6594 -113.6894 255° West 374 430 24,000  Level Los Angeles Center
Tue 01:16:19 AM 36.6331 -113.8161 255° West 376 433 24,000 -344 Level Los Angeles Center
Tue 01:17:20 AM 36.6058 -113.9456 255° West 385 443 23,300 -1,574 Descending Los Angeles Center
Tue 01:18:21 AM 36.5764 -114.0761 254° West 391 450 20,800 -2,754 Descending Los Angeles Center
Tue 01:19:22 AM 36.5272 -114.1894 242° Southwest 375 432 17,700 -3,022 Descending Los Angeles Center
Tue 01:20:36 AM 36.4611 -114.3447 242° Southwest 364 419 14,000 -2,356 Descending Los Angeles Center
Tue 01:21:37 AM 36.4111 -114.4389 237° Southwest 355 409 12,400 -1,525 Descending Los Angeles Center
Tue 01:22:38 AM 36.3667 -114.5289 238° Southwest 316 364 10,900 -1,612 Descending Los Angeles Center
Tue 01:23:51 AM 36.3117 -114.6364 238° Southwest 287 330 8,800 -1,299 Descending Los Angeles Center
Tue 01:24:52 AM 36.2686 -114.7150 236° Southwest 275 316 8,000 -492 Descending Los Angeles Center
Tue 01:25:53 AM 36.2269 -114.7903 236° Southwest 268 308 7,800 -885 Descending Los Angeles Center
Tue 01:26:54 AM 36.1850 -114.8658 235° Southwest 263 303 6,200 -893 Descending Los Angeles Center
Tue 01:27:54 AM 36.1475 -114.9314 235° Southwest 216 249 6,000 -160 Descending Los Angeles Center
Tue 01:28:09 AM 36.1433 -114.9378 231° Southwest 235 270 6,000 -197 Level Los Angeles Center
Tue 01:28:55 AM 36.1342 -114.9892 258° West 170 196 5,800 -353 Descending Los Angeles Center
Tue 01:29:34 AM 36.1336 -115.0017 267° West 170 196 5,500 -1,377 Descending Los Angeles Center
Tue 01:29:56 AM 36.1375 -115.0442 276° West 156 180 4,400 -1,770 Descending Los Angeles Center
Tue 01:30:35 AM 36.1397 -115.0650 278° West 158 182 3,700 -1,077 Descending Los Angeles Center

Login

Don't have an account? Register now (free) for customized features, flight alerts, and more!